ESNK/KRF METAR and TAF weather

Enter ICAO airport designator
Station Type Date Time Source
ESNK METAR 2018/04/26 14:50 UTC NOAA

ESNK 261450Z AUTO 32011KT 9999 NCD 11/M02 Q0997


Station Type Date Time Source
ESNK Decoded METAR 2018/04/26 14:50 UTC NOAA

Kramfors Flygplats, Sweden (ESNK) 63-03N 017-46E 19M
Apr 26, 2018 - 10:50 AM EDT / 2018.04.26 1450 UTC
Wind: from the NW (320 degrees) at 13 MPH (11 KT):0
Visibility: greater than 7 mile(s):0
Temperature: 51 F (11 C)
Dew Point: 28 F (-2 C)
Relative Humidity: 40%
Pressure (altimeter): 29.44 in. Hg (0997 hPa)
ob: ESNK 261450Z AUTO 32011KT 9999 NCD 11/M02 Q0997
cycle: 15

Station Type Date Time Source
ESNK TAF 2017/12/15 06:00 UTC NOAA

TAF
AMD ESNK 150654Z 1506/1521 35005KT 6000 -SN BKN016
TEMPO 1506/1521 2000 SN SG VV009


Example: see airport list